• Join FlightAware (Why Join?)
  • Login
  • US Flag 
10:52PM EDT


 

Airport Tracker/Info


-or-


 

Live Flight TrackerFlight Track Log ✈ JTA62 ✈ 14-Apr-2013 ✈ ROAH / OKA - RJFF / FUK

Flight Track Log - Related Links

Times and Time Zones

All times are in EDT time to prevent confusion due to time zone crossing. See the JTA62 flight status page for this flight to view local times or setup timezone preferences in your user account.

Time Position Orientation Groundspeed Altitude Reporting Facility
EDT Latitude Longitude Course Direction KTS MPH feet Rate Location/Type
07:51AM 26.5092 127.7565 18° North  Level Estimated
07:52AM 26.6136 127.7935 18° North  Level Estimated
07:53AM 26.7181 127.8305 18° North  Level Estimated
07:54AM 26.8225 127.8677 18° North  Level Estimated
07:55AM 26.9269 127.9048 18° North  Level Estimated
07:56AM 27.0313 127.9421 18° North  Level Estimated
07:57AM 27.1357 127.9795 18° North  Level Estimated
07:58AM 27.2400 128.0169 18° North  Level Estimated
07:59AM 27.3444 128.0544 18° North  Level Estimated
08:00AM 27.4488 128.0919 18° North  Level Estimated
08:01AM 27.5531 128.1295 18° North  Level Estimated
08:02AM 27.6575 128.1672 18° North  Level Estimated
08:03AM 27.7618 128.2050 18° North  Level Estimated
08:04AM 27.8661 128.2428 18° North  Level Estimated
08:05AM 27.9704 128.2807 18° North  Level Estimated
08:06AM 28.0747 128.3187 18° North  Level Estimated
08:07AM 28.1790 128.3568 18° North  Level Estimated
08:08AM 28.2833 128.3949 18° North  Level Estimated
08:09AM 28.3875 128.4331 18° North  Level Estimated
08:10AM 28.4918 128.4714 18° North  Level Estimated
08:11AM 28.5960 128.5097 18° North  Level Estimated
08:12AM 28.7003 128.5482 18° North  Level Estimated
08:13AM 28.8045 128.5867 18° North  Level Estimated
08:14AM 28.9087 128.6253 18° North  Level Estimated
08:15AM 29.0129 128.6639 18° North  Level Estimated
08:16AM 29.1171 128.7027 18° North  Level Estimated
08:17AM 29.2213 128.7415 18° North  Level Estimated
08:18AM 29.3254 128.7804 18° North  Level Estimated
08:19AM 29.4296 128.8194 18° North  Level Estimated
08:20AM 29.5337 128.8584 18° North  Level Estimated
08:21AM 29.6378 128.8976 18° North  Level Estimated
08:22AM 29.7420 128.9368 18° North  Level Estimated
08:23AM 29.8461 128.9761 18° North  Level Estimated
08:24AM 29.9502 129.0155 18° North  Level Estimated
08:25AM 30.0543 129.0549 18° North  Level Estimated
08:26AM 30.1583 129.0945 18° North  Level Estimated
08:27AM 30.2624 129.1341 18° North  Level Estimated
08:28AM 30.3664 129.1738 18° North  Level Estimated
08:29AM 30.4705 129.2136 18° North  Level Estimated
08:30AM 30.5745 129.2535 18° North  Level Estimated
08:31AM 30.6785 129.2935 18° North  Level Estimated
08:32AM 30.7825 129.3336 18° North  Level Estimated
08:33AM 30.8865 129.3737 18° North  Level Estimated
08:34AM 30.9905 129.4139 18° North  Level Estimated
08:35AM 31.0944 129.4543 18° North  Level Estimated
08:36AM 31.1984 129.4947 18° North  Level Estimated
08:37AM 31.3023 129.5352 18° North  Level Estimated
08:38AM 31.4063 129.5758 18° North  Level Estimated
08:39AM 31.5102 129.6164 18° North  Level Estimated
08:40AM 31.6141 129.6572 18° North  Level Estimated
08:41AM 31.7180 129.6981 18° North  Level Estimated
08:42AM 31.8218 129.7390 19° North  Level Estimated
08:43AM 31.9257 129.7801 19° North  Level Estimated
08:44AM 32.0295 129.8212 19° North  Level Estimated
08:45AM 32.1334 129.8624 19° North  Level Estimated
08:46AM 32.2372 129.9037 19° North  Level Estimated
08:47AM 32.3410 129.9452 19° North  Level Estimated
08:48AM 32.4448 129.9867 19° North  Level Estimated
08:49AM 32.5486 130.0283 19° North  Level Estimated
08:50AM 32.6523 130.0700 19° North  Level Estimated
08:51AM 32.7640 130.1150 19° North  Level Estimated
08:52AM 32.8755 130.1600 19° North  Level Estimated
08:53AM 32.9871 130.2052 19° North  Level Estimated
08:54AM 33.0987 130.2506 19° North  Level Estimated
08:55AM 33.2102 130.2960 19° North  Level Estimated
08:56AM 33.3218 130.3415 19° North  Level Estimated
08:57AM 33.4333 130.3872 19° North  Level Estimated
08:58AM 33.5448 130.4330 19° North  Level Estimated
08:59AM 33.5866 130.4502 19° North  Level Estimated
09:00AM 33.5866 130.4502 248° West  Level Estimated
09:01AM 33.5866 130.4502 248° West  Level Estimated
09:02AM 33.5866 130.4502 248° West  Level Estimated
09:03AM 33.5866 130.4502 248° West  Level Estimated
09:04AM 33.5866 130.4502 248° West  Level Estimated
09:05AM 33.5866 130.4502 248° West  Level Estimated
09:06AM 33.5866 130.4502 248° West  Level Estimated
09:07AM 33.5866 130.4502 248° West  Level Estimated
09:08AM 33.5866 130.4502 248° West  Level Estimated